createdAt,value
2023-01-23T00:05:13.211Z,-5.16
2023-01-23T00:07:41.879Z,-5.20
2023-01-23T00:10:09.256Z,-5.22
2023-01-23T00:12:35.782Z,-5.27
2023-01-23T00:15:39.723Z,-5.31
2023-01-23T00:21:53.815Z,-5.23
2023-01-23T00:24:20.540Z,-5.16
2023-01-23T00:27:07.470Z,-5.10
2023-01-23T00:29:34.065Z,-5.13
2023-01-23T00:32:00.656Z,-5.14
2023-01-23T00:34:27.219Z,-5.13
2023-01-23T00:40:49.622Z,-5.14
2023-01-23T00:43:16.194Z,-5.17
2023-01-23T00:45:43.347Z,-5.20
2023-01-23T00:48:14.979Z,-5.23
2023-01-23T00:50:41.532Z,-5.20
2023-01-23T00:53:19.090Z,-5.18
2023-01-23T00:58:54.088Z,-5.13
2023-01-23T01:02:01.645Z,-5.18
2023-01-23T01:12:21.999Z,-5.28
2023-01-23T01:19:02.771Z,-5.36
2023-01-23T01:21:30.237Z,-5.29
2023-01-23T01:28:29.689Z,-5.08
2023-01-23T01:30:57.483Z,-4.97
2023-01-23T01:37:10.860Z,-4.81
2023-01-23T01:39:37.349Z,-4.77
2023-01-23T01:45:55.719Z,-4.82
2023-01-23T01:48:26.976Z,-4.86
2023-01-23T01:54:52.691Z,-4.98
2023-01-23T02:01:49.897Z,-4.86
2023-01-23T02:08:28.628Z,-4.70
2023-01-23T02:10:55.256Z,-4.62
2023-01-23T02:17:08.817Z,-4.53
2023-01-23T02:19:50.620Z,-4.55
2023-01-23T02:34:43.480Z,-4.42
2023-01-23T02:43:59.312Z,-4.46
2023-01-23T02:51:07.807Z,-4.41
2023-01-23T02:53:34.374Z,-4.41
2023-01-23T03:00:24.722Z,-4.31
2023-01-23T03:10:40.840Z,-4.14
2023-01-23T03:13:09.197Z,-4.10
2023-01-23T03:19:53.640Z,-4.02
2023-01-23T03:22:20.195Z,-4.13
2023-01-23T03:29:10.664Z,-4.22
2023-01-23T03:31:37.289Z,-4.20
2023-01-23T03:37:52.217Z,-4.17
2023-01-23T03:40:40.075Z,-4.09
2023-01-23T03:46:53.759Z,-3.96
2023-01-23T03:49:20.675Z,-3.94
2023-01-23T03:55:27.429Z,-3.85
2023-01-23T03:57:53.961Z,-3.87
2023-01-23T04:04:12.608Z,-3.95
2023-01-23T04:06:39.127Z,-3.97
2023-01-23T04:13:19.646Z,-3.85
2023-01-23T04:15:46.299Z,-3.80
2023-01-23T04:18:12.876Z,-3.80
2023-01-23T04:20:39.464Z,-3.76
2023-01-23T04:26:56.658Z,-3.65
2023-01-23T04:42:53.473Z,-3.53
2023-01-23T04:49:06.801Z,-3.63
2023-01-23T04:51:33.397Z,-3.68
2023-01-23T04:57:40.549Z,-3.61
2023-01-23T05:00:09.227Z,-3.65
2023-01-23T05:06:23.007Z,-3.52
2023-01-23T05:08:54.312Z,-3.48
2023-01-23T05:15:13.105Z,-3.44
2023-01-23T05:25:11.805Z,-3.49
2023-01-23T05:31:40.322Z,-3.54
2023-01-23T05:34:07.102Z,-3.51
2023-01-23T05:40:17.916Z,-3.43
2023-01-23T05:42:47.997Z,-3.44
2023-01-23T05:49:14.087Z,-3.41
2023-01-23T05:51:48.028Z,-3.43
2023-01-23T05:58:01.848Z,-3.37
2023-01-23T06:00:37.109Z,-3.38
2023-01-23T06:07:07.589Z,-3.38
2023-01-23T06:09:34.258Z,-3.38
2023-01-23T06:19:37.161Z,-3.35
2023-01-23T06:26:04.320Z,-3.31
2023-01-23T06:35:57.694Z,-3.26
2023-01-23T06:42:56.543Z,-3.22
2023-01-23T06:45:23.124Z,-3.21
2023-01-23T06:51:38.949Z,-3.12
2023-01-23T06:54:05.713Z,-2.97
2023-01-23T06:56:40.680Z,-2.83
2023-01-23T07:57:38.805Z,-2.21
2023-01-23T08:00:06.029Z,-2.17
2023-01-23T08:06:20.166Z,-2.18
2023-01-23T08:16:53.001Z,-2.09
2023-01-23T08:19:19.897Z,-2.06
2023-01-23T08:25:26.985Z,-1.90
2023-01-23T08:27:53.464Z,-1.85
2023-01-23T08:34:06.585Z,-1.67
2023-01-23T08:36:33.235Z,-1.59
2023-01-23T08:42:56.564Z,-1.25
2023-01-23T08:45:51.729Z,-1.10
2023-01-23T09:01:56.735Z,-0.53
2023-01-23T09:04:23.270Z,-0.45
2023-01-23T09:06:49.796Z,-0.38
2023-01-23T09:09:16.331Z,-0.25
2023-01-23T09:11:42.894Z,-0.10
2023-01-23T09:14:09.438Z,-0.03
2023-01-23T09:16:36.037Z,0.10
2023-01-23T09:19:02.584Z,0.14
2023-01-23T09:21:29.075Z,0.23
2023-01-23T09:23:56.953Z,0.21
2023-01-23T09:26:29.218Z,0.28
2023-01-23T09:28:55.789Z,0.41
2023-01-23T09:31:22.391Z,0.52
2023-01-23T09:33:49.175Z,0.62
2023-01-23T09:36:15.694Z,0.74
2023-01-23T09:38:42.271Z,0.75
2023-01-23T09:41:23.475Z,0.79
2023-01-23T09:43:58.916Z,0.70
2023-01-23T09:46:41.786Z,0.64
2023-01-23T09:49:11.016Z,0.53
2023-01-23T09:51:37.534Z,0.47
2023-01-23T09:54:47.085Z,0.34
2023-01-23T09:57:22.072Z,0.28
2023-01-23T10:00:00.622Z,0.24
2023-01-23T10:02:27.822Z,0.22
2023-01-23T10:04:56.695Z,0.13
2023-01-23T10:07:32.302Z,0.15
2023-01-23T10:10:39.263Z,0.23
2023-01-23T10:13:09.335Z,0.16
2023-01-23T10:15:35.754Z,0.16
2023-01-23T10:18:02.219Z,0.15
2023-01-23T10:20:55.532Z,0.12
2023-01-23T10:23:45.762Z,0.22
2023-01-23T10:26:20.870Z,0.30
2023-01-23T10:28:47.983Z,0.32
2023-01-23T10:31:25.131Z,0.31
2023-01-23T10:34:04.919Z,0.30
2023-01-23T10:36:56.339Z,0.43
2023-01-23T10:39:28.039Z,0.52
2023-01-23T10:42:02.029Z,0.56
2023-01-23T10:44:29.176Z,0.46
2023-01-23T10:47:04.442Z,0.43
2023-01-23T10:49:43.190Z,0.56
2023-01-23T10:52:46.163Z,0.59
2023-01-23T10:55:18.905Z,0.62
2023-01-23T10:57:48.924Z,0.56
2023-01-23T11:00:33.322Z,0.50
2023-01-23T11:03:21.367Z,0.52
2023-01-23T11:05:53.721Z,0.62
2023-01-23T11:08:30.874Z,0.64
2023-01-23T11:11:15.468Z,0.83
2023-01-23T11:13:47.146Z,0.94
2023-01-23T11:16:23.709Z,0.99
2023-01-23T11:18:55.993Z,0.86
2023-01-23T11:36:54.297Z,0.99
2023-01-23T12:16:08.415Z,1.43
2023-01-23T12:27:27.963Z,1.41
2023-01-23T12:45:30.374Z,1.03
2023-01-23T12:56:18.108Z,0.98
2023-01-23T12:58:53.700Z,1.08
2023-01-23T13:09:35.349Z,1.12
2023-01-23T13:22:45.773Z,1.03
2023-01-23T13:29:02.435Z,1.04
2023-01-23T14:31:20.910Z,0.30
2023-01-23T14:33:47.615Z,0.27
2023-01-23T14:36:19.338Z,0.25
2023-01-23T14:38:47.369Z,0.20
2023-01-23T14:41:14.357Z,0.21
2023-01-23T14:43:42.681Z,0.19
2023-01-23T14:46:19.131Z,0.12
2023-01-23T14:48:51.752Z,0.12
2023-01-23T14:51:24.338Z,0.12
2023-01-23T14:53:54.751Z,0.15
2023-01-23T14:56:26.339Z,0.16
2023-01-23T14:58:55.089Z,0.18
2023-01-23T15:01:21.789Z,0.15
2023-01-23T15:04:03.350Z,0.20
2023-01-23T15:06:32.282Z,0.17
2023-01-23T15:09:14.630Z,0.19
2023-01-23T15:11:41.667Z,0.16
2023-01-23T15:14:25.580Z,0.20
2023-01-23T15:17:00.149Z,0.19
2023-01-23T15:19:26.868Z,0.18
2023-01-23T15:22:08.354Z,0.18
2023-01-23T15:24:35.062Z,0.18
2023-01-23T15:27:04.899Z,0.16
2023-01-23T15:29:32.700Z,0.15
2023-01-23T15:31:59.970Z,0.10
2023-01-23T15:34:33.071Z,0.10
2023-01-23T15:37:08.334Z,0.08
2023-01-23T15:39:50.600Z,0.09
2023-01-23T15:42:17.056Z,0.06
2023-01-23T15:44:43.867Z,0.02
2023-01-23T15:47:11.048Z,0.02
2023-01-23T15:49:39.915Z,0.00
2023-01-23T15:52:18.526Z,-0.03
2023-01-23T15:54:45.891Z,-0.05
2023-01-23T15:57:13.222Z,-0.06
2023-01-23T15:59:40.622Z,-0.07
2023-01-23T16:02:12.908Z,-0.08
2023-01-23T16:04:45.766Z,-0.13
2023-01-23T16:07:29.481Z,-0.13
2023-01-23T16:09:56.670Z,-0.16
2023-01-23T16:12:28.114Z,-0.15
2023-01-23T16:14:54.981Z,-0.17
2023-01-23T16:17:21.664Z,-0.15
2023-01-23T16:19:48.200Z,-0.17
2023-01-23T16:22:22.637Z,-0.17
2023-01-23T16:24:49.834Z,-0.17
2023-01-23T16:27:18.839Z,-0.18
2023-01-23T16:29:46.242Z,-0.19
2023-01-23T16:32:12.857Z,-0.21
2023-01-23T16:34:39.471Z,-0.20
2023-01-23T16:37:12.027Z,-0.19
2023-01-23T16:39:41.587Z,-0.18
2023-01-23T16:42:27.791Z,-0.17
2023-01-23T16:44:54.364Z,-0.18
2023-01-23T16:47:20.888Z,-0.18
2023-01-23T16:49:52.542Z,-0.18
2023-01-23T16:52:20.699Z,-0.19
2023-01-23T16:54:47.403Z,-0.16
2023-01-23T16:57:20.207Z,-0.19
2023-01-23T16:59:49.186Z,-0.19
2023-01-23T17:02:23.094Z,-0.20
2023-01-23T17:04:50.024Z,-0.20
2023-01-23T17:07:18.059Z,-0.20
2023-01-23T17:09:45.772Z,-0.19
2023-01-23T17:12:18.571Z,-0.21
2023-01-23T17:14:46.530Z,-0.22
2023-01-23T17:17:24.925Z,-0.23
2023-01-23T17:19:52.397Z,-0.24
2023-01-23T17:22:23.499Z,-0.24
2023-01-23T17:24:50.184Z,-0.23
2023-01-23T17:27:16.837Z,-0.25
2023-01-23T17:29:43.391Z,-0.25
2023-01-23T17:32:31.063Z,-0.23
2023-01-23T17:35:01.720Z,-0.23
2023-01-23T17:37:29.598Z,-0.22
2023-01-23T17:39:56.118Z,-0.25
2023-01-23T17:42:22.727Z,-0.27
2023-01-23T17:44:49.436Z,-0.25
2023-01-23T17:47:16.460Z,-0.28
2023-01-23T17:49:49.688Z,-0.26
2023-01-23T17:52:16.220Z,-0.24
2023-01-23T17:54:42.813Z,-0.24
2023-01-23T17:57:09.355Z,-0.23
2023-01-23T17:59:35.855Z,-0.24
2023-01-23T18:02:02.504Z,-0.23
2023-01-23T18:04:29.059Z,-0.24
2023-01-23T18:06:55.583Z,-0.23
2023-01-23T18:09:22.107Z,-0.21
2023-01-23T18:11:55.099Z,-0.21
2023-01-23T18:14:44.775Z,-0.20
2023-01-23T18:17:41.571Z,-0.20
2023-01-23T18:20:22.830Z,-0.18
2023-01-23T18:22:50.049Z,-0.20
2023-01-23T18:25:18.902Z,-0.19
2023-01-23T18:27:54.273Z,-0.20
2023-01-23T18:30:41.915Z,-0.21
2023-01-23T18:33:23.591Z,-0.20
2023-01-23T18:36:21.099Z,-0.20
2023-01-23T18:39:25.717Z,-0.19
2023-01-23T18:42:28.048Z,-0.19
2023-01-23T18:45:05.288Z,-0.18
2023-01-23T18:47:32.051Z,-0.19
2023-01-23T18:49:58.834Z,-0.18
2023-01-23T18:52:45.931Z,-0.16
2023-01-23T18:55:24.139Z,-0.16
2023-01-23T18:58:06.705Z,-0.14
2023-01-23T19:00:35.895Z,-0.13
2023-01-23T19:03:12.345Z,-0.14
2023-01-23T19:05:39.115Z,-0.14
2023-01-23T19:08:05.884Z,-0.13
2023-01-23T19:10:48.678Z,-0.10
2023-01-23T19:13:33.460Z,-0.10
2023-01-23T19:16:24.256Z,-0.09
2023-01-23T19:19:14.659Z,-0.12
2023-01-23T19:21:42.463Z,-0.13
2023-01-23T19:24:11.125Z,-0.13
2023-01-23T19:26:40.108Z,-0.10
2023-01-23T19:29:21.145Z,-0.08
2023-01-23T19:32:04.047Z,-0.09
2023-01-23T19:34:33.377Z,-0.06
2023-01-23T19:36:59.908Z,-0.07
2023-01-23T19:39:26.442Z,-0.07
2023-01-23T19:41:53.410Z,-0.07
2023-01-23T19:44:24.145Z,-0.06
2023-01-23T19:46:51.338Z,-0.08
2023-01-23T19:49:17.904Z,-0.08
2023-01-23T19:51:44.460Z,-0.07
2023-01-23T19:54:13.256Z,-0.06
2023-01-23T19:56:40.087Z,-0.07
2023-01-23T19:59:07.070Z,-0.08
2023-01-23T20:01:37.045Z,-0.07
2023-01-23T20:04:05.286Z,-0.06
2023-01-23T20:06:34.293Z,-0.05
2023-01-23T20:09:01.003Z,-0.04
2023-01-23T20:11:27.523Z,-0.03
2023-01-23T20:13:54.027Z,-0.04
2023-01-23T20:16:25.016Z,-0.03
2023-01-23T20:18:53.471Z,-0.03
2023-01-23T20:21:25.778Z,-0.04
2023-01-23T20:23:52.832Z,-0.03
2023-01-23T20:26:20.840Z,-0.04
2023-01-23T20:28:53.321Z,-0.02
2023-01-23T20:31:21.705Z,-0.01
2023-01-23T20:33:48.380Z,-0.02
2023-01-23T20:36:15.967Z,-0.02
2023-01-23T20:38:43.203Z,0.01
2023-01-23T20:41:15.448Z,-0.01
2023-01-23T20:43:44.850Z,0.03
2023-01-23T20:46:12.362Z,0.04
2023-01-23T20:48:41.569Z,0.03
2023-01-23T20:51:09.770Z,0.03
2023-01-23T20:53:39.513Z,0.04
2023-01-23T20:56:09.434Z,0.03
2023-01-23T20:58:56.648Z,0.06
2023-01-23T21:01:25.168Z,0.06
2023-01-23T21:03:51.736Z,0.05
2023-01-23T21:06:19.324Z,0.05
2023-01-23T21:08:46.480Z,0.04
2023-01-23T21:11:23.934Z,0.03
2023-01-23T21:13:53.417Z,0.05
2023-01-23T21:16:20.172Z,0.02
2023-01-23T21:18:47.684Z,0.06
2023-01-23T21:21:17.194Z,0.06
2023-01-23T21:23:46.832Z,0.07
2023-01-23T21:26:13.429Z,0.06
2023-01-23T21:28:39.983Z,0.05
2023-01-23T21:31:14.735Z,0.05
2023-01-23T21:33:44.162Z,0.07
2023-01-23T21:36:12.946Z,0.04
2023-01-23T21:38:39.879Z,0.06
2023-01-23T21:41:06.419Z,0.06
2023-01-23T21:43:33.847Z,0.08
2023-01-23T21:46:00.503Z,0.05
2023-01-23T21:48:31.124Z,0.05
2023-01-23T21:51:17.004Z,0.05
2023-01-23T21:53:45.798Z,0.05
2023-01-23T21:56:14.893Z,0.05
2023-01-23T21:58:44.290Z,0.05
2023-01-23T22:01:32.163Z,0.05
2023-01-23T22:04:05.655Z,0.03
2023-01-23T22:06:34.034Z,0.05
2023-01-23T22:09:00.659Z,0.05
2023-01-23T22:11:27.463Z,0.06
2023-01-23T22:13:55.094Z,0.07
2023-01-23T22:16:31.946Z,0.08
2023-01-23T22:19:07.247Z,0.08
2023-01-23T22:21:34.267Z,0.06
2023-01-23T22:24:01.406Z,0.07
2023-01-23T22:26:28.072Z,0.07
2023-01-23T22:28:54.613Z,0.07
2023-01-23T22:31:21.164Z,0.11
2023-01-23T22:33:48.358Z,0.10
2023-01-23T22:36:19.690Z,0.11
2023-01-23T22:38:54.340Z,0.11
2023-01-23T22:41:21.924Z,0.11
2023-01-23T22:43:53.240Z,0.12
2023-01-23T22:46:19.742Z,0.14
2023-01-23T22:48:46.703Z,0.14
2023-01-23T22:51:16.289Z,0.13
2023-01-23T22:53:43.053Z,0.15
2023-01-23T22:56:10.129Z,0.13
2023-01-23T22:58:37.011Z,0.12
2023-01-23T23:01:04.276Z,0.13
2023-01-23T23:03:33.128Z,0.15
2023-01-23T23:06:02.787Z,0.17
2023-01-23T23:08:29.833Z,0.20
2023-01-23T23:11:08.331Z,0.18
2023-01-23T23:13:36.871Z,0.18
2023-01-23T23:16:09.040Z,0.18
2023-01-23T23:18:38.270Z,0.17
2023-01-23T23:21:08.850Z,0.15
2023-01-23T23:23:35.751Z,0.14
2023-01-23T23:26:02.533Z,0.13
2023-01-23T23:28:30.380Z,0.13
2023-01-23T23:30:57.301Z,0.12
2023-01-23T23:33:24.027Z,0.12
2023-01-23T23:35:50.563Z,0.11
2023-01-23T23:38:17.156Z,0.14
2023-01-23T23:40:43.711Z,0.13
2023-01-23T23:43:10.274Z,0.16
2023-01-23T23:45:36.878Z,0.15
2023-01-23T23:48:03.716Z,0.14
2023-01-23T23:50:32.283Z,0.18
2023-01-23T23:52:59.451Z,0.16
2023-01-23T23:55:25.997Z,0.16
2023-01-23T23:57:52.490Z,0.15
